sensor_id;sensor_type;location;lat;lon;timestamp;temperature;humidity
5723;DHT22;2886;49.722;8.612;2023-02-15T00:01:55;2.00;99.90
5723;DHT22;2886;49.722;8.612;2023-02-15T00:04:23;2.00;99.90
5723;DHT22;2886;49.722;8.612;2023-02-15T00:06:49;2.00;99.90
5723;DHT22;2886;49.722;8.612;2023-02-15T00:09:15;2.00;99.90
5723;DHT22;2886;49.722;8.612;2023-02-15T00:11:41;2.10;99.90
5723;DHT22;2886;49.722;8.612;2023-02-15T00:14:22;2.00;99.90
5723;DHT22;2886;49.722;8.612;2023-02-15T00:16:49;1.90;99.90
5723;DHT22;2886;49.722;8.612;2023-02-15T00:19:17;1.90;99.90
5723;DHT22;2886;49.722;8.612;2023-02-15T00:21:44;1.90;99.90
5723;DHT22;2886;49.722;8.612;2023-02-15T00:24:12;1.90;99.90
5723;DHT22;2886;49.722;8.612;2023-02-15T00:26:39;1.90;99.90
5723;DHT22;2886;49.722;8.612;2023-02-15T00:29:05;1.80;99.90
5723;DHT22;2886;49.722;8.612;2023-02-15T00:31:32;1.80;99.90
5723;DHT22;2886;49.722;8.612;2023-02-15T00:34:12;1.80;99.90
5723;DHT22;2886;49.722;8.612;2023-02-15T00:36:38;1.80;99.90
5723;DHT22;2886;49.722;8.612;2023-02-15T00:39:04;1.80;99.90
5723;DHT22;2886;49.722;8.612;2023-02-15T00:41:33;1.80;99.90
5723;DHT22;2886;49.722;8.612;2023-02-15T00:43:59;1.80;99.90
5723;DHT22;2886;49.722;8.612;2023-02-15T00:46:24;1.90;99.90
5723;DHT22;2886;49.722;8.612;2023-02-15T00:48:50;1.90;99.90
5723;DHT22;2886;49.722;8.612;2023-02-15T00:51:16;1.90;99.90
5723;DHT22;2886;49.722;8.612;2023-02-15T00:53:45;1.80;99.90
5723;DHT22;2886;49.722;8.612;2023-02-15T00:56:11;1.80;99.90
5723;DHT22;2886;49.722;8.612;2023-02-15T00:58:37;1.90;99.90
5723;DHT22;2886;49.722;8.612;2023-02-15T01:01:15;1.90;99.90
5723;DHT22;2886;49.722;8.612;2023-02-15T01:03:41;2.00;99.90
5723;DHT22;2886;49.722;8.612;2023-02-15T01:06:07;1.90;99.90
5723;DHT22;2886;49.722;8.612;2023-02-15T01:08:33;1.90;99.90
5723;DHT22;2886;49.722;8.612;2023-02-15T01:11:04;1.90;99.90
5723;DHT22;2886;49.722;8.612;2023-02-15T01:13:30;1.90;99.90
5723;DHT22;2886;49.722;8.612;2023-02-15T01:15:56;1.90;99.90
5723;DHT22;2886;49.722;8.612;2023-02-15T01:18:22;1.90;99.90
5723;DHT22;2886;49.722;8.612;2023-02-15T01:20:48;1.80;99.90
5723;DHT22;2886;49.722;8.612;2023-02-15T01:23:14;1.90;99.90
5723;DHT22;2886;49.722;8.612;2023-02-15T01:25:39;1.80;99.90
5723;DHT22;2886;49.722;8.612;2023-02-15T01:28:05;1.90;99.90
5723;DHT22;2886;49.722;8.612;2023-02-15T01:30:31;1.90;99.90
5723;DHT22;2886;49.722;8.612;2023-02-15T01:32:57;1.90;99.90
5723;DHT22;2886;49.722;8.612;2023-02-15T01:35:23;1.90;99.90
5723;DHT22;2886;49.722;8.612;2023-02-15T01:37:49;2.00;99.90
5723;DHT22;2886;49.722;8.612;2023-02-15T01:40:17;2.00;99.90
5723;DHT22;2886;49.722;8.612;2023-02-15T01:42:43;1.90;99.90
5723;DHT22;2886;49.722;8.612;2023-02-15T01:45:24;2.00;99.90
5723;DHT22;2886;49.722;8.612;2023-02-15T01:50:44;2.10;99.90
5723;DHT22;2886;49.722;8.612;2023-02-15T01:53:24;2.00;99.90
5723;DHT22;2886;49.722;8.612;2023-02-15T01:55:58;2.00;99.90
5723;DHT22;2886;49.722;8.612;2023-02-15T01:58:26;1.90;99.90
5723;DHT22;2886;49.722;8.612;2023-02-15T02:00:53;1.90;99.90
5723;DHT22;2886;49.722;8.612;2023-02-15T02:03:36;1.90;99.90
5723;DHT22;2886;49.722;8.612;2023-02-15T02:06:04;1.90;99.90
5723;DHT22;2886;49.722;8.612;2023-02-15T02:08:30;1.90;99.90
5723;DHT22;2886;49.722;8.612;2023-02-15T02:10:56;1.90;99.90
5723;DHT22;2886;49.722;8.612;2023-02-15T02:13:21;1.90;99.90
5723;DHT22;2886;49.722;8.612;2023-02-15T02:18:54;1.90;99.90
5723;DHT22;2886;49.722;8.612;2023-02-15T02:22:02;1.80;99.90
5723;DHT22;2886;49.722;8.612;2023-02-15T02:24:58;1.80;99.90
5723;DHT22;2886;49.722;8.612;2023-02-15T02:33:36;1.90;99.90
5723;DHT22;2886;49.722;8.612;2023-02-15T02:36:18;1.70;99.90
5723;DHT22;2886;49.722;8.612;2023-02-15T02:39:32;1.70;99.90
5723;DHT22;2886;49.722;8.612;2023-02-15T02:42:09;1.70;99.90
5723;DHT22;2886;49.722;8.612;2023-02-15T02:44:48;1.70;99.90
5723;DHT22;2886;49.722;8.612;2023-02-15T02:49:46;1.60;99.90
5723;DHT22;2886;49.722;8.612;2023-02-15T02:52:35;1.60;99.90
5723;DHT22;2886;49.722;8.612;2023-02-15T02:55:03;1.70;99.90
5723;DHT22;2886;49.722;8.612;2023-02-15T02:57:32;1.70;99.90
5723;DHT22;2886;49.722;8.612;2023-02-15T03:00:02;1.70;99.90
5723;DHT22;2886;49.722;8.612;2023-02-15T03:02:32;1.70;99.90
5723;DHT22;2886;49.722;8.612;2023-02-15T03:05:04;1.70;99.90
5723;DHT22;2886;49.722;8.612;2023-02-15T03:07:33;1.70;99.90
5723;DHT22;2886;49.722;8.612;2023-02-15T03:10:02;1.70;99.90
5723;DHT22;2886;49.722;8.612;2023-02-15T03:12:36;1.80;99.90
5723;DHT22;2886;49.722;8.612;2023-02-15T03:15:10;1.80;99.90
5723;DHT22;2886;49.722;8.612;2023-02-15T03:17:41;1.80;99.90
5723;DHT22;2886;49.722;8.612;2023-02-15T03:20:18;1.80;99.90
5723;DHT22;2886;49.722;8.612;2023-02-15T03:22:51;1.70;99.90
5723;DHT22;2886;49.722;8.612;2023-02-15T03:25:25;1.70;99.90
5723;DHT22;2886;49.722;8.612;2023-02-15T03:28:05;1.70;99.90
5723;DHT22;2886;49.722;8.612;2023-02-15T03:30:34;1.70;99.90
5723;DHT22;2886;49.722;8.612;2023-02-15T03:33:03;1.70;99.90
5723;DHT22;2886;49.722;8.612;2023-02-15T03:35:39;1.70;99.90
5723;DHT22;2886;49.722;8.612;2023-02-15T03:38:09;1.70;99.90
5723;DHT22;2886;49.722;8.612;2023-02-15T03:40:41;1.70;99.90
5723;DHT22;2886;49.722;8.612;2023-02-15T03:43:30;1.70;99.90
5723;DHT22;2886;49.722;8.612;2023-02-15T03:46:05;1.70;99.90
5723;DHT22;2886;49.722;8.612;2023-02-15T03:48:36;1.80;99.90
5723;DHT22;2886;49.722;8.612;2023-02-15T03:51:11;1.80;99.90
5723;DHT22;2886;49.722;8.612;2023-02-15T03:53:57;1.80;99.90
5723;DHT22;2886;49.722;8.612;2023-02-15T03:56:24;1.70;99.90
5723;DHT22;2886;49.722;8.612;2023-02-15T03:58:50;1.70;99.90
5723;DHT22;2886;49.722;8.612;2023-02-15T04:01:54;1.70;99.90
5723;DHT22;2886;49.722;8.612;2023-02-15T04:04:36;1.70;99.90
5723;DHT22;2886;49.722;8.612;2023-02-15T04:07:04;1.70;99.90
5723;DHT22;2886;49.722;8.612;2023-02-15T04:09:29;1.60;99.90
5723;DHT22;2886;49.722;8.612;2023-02-15T04:12:13;1.60;99.90
5723;DHT22;2886;49.722;8.612;2023-02-15T04:14:39;1.60;99.90
5723;DHT22;2886;49.722;8.612;2023-02-15T04:17:23;1.50;99.90
5723;DHT22;2886;49.722;8.612;2023-02-15T04:19:49;1.50;99.90
5723;DHT22;2886;49.722;8.612;2023-02-15T04:22:33;1.60;99.90
5723;DHT22;2886;49.722;8.612;2023-02-15T04:25:17;1.60;99.90
5723;DHT22;2886;49.722;8.612;2023-02-15T04:27:47;1.60;99.90
5723;DHT22;2886;49.722;8.612;2023-02-15T04:30:14;1.60;99.90
5723;DHT22;2886;49.722;8.612;2023-02-15T04:32:40;1.60;99.90
5723;DHT22;2886;49.722;8.612;2023-02-15T04:35:07;1.50;99.90
5723;DHT22;2886;49.722;8.612;2023-02-15T04:37:33;1.50;99.90
5723;DHT22;2886;49.722;8.612;2023-02-15T04:40:00;1.40;99.90
5723;DHT22;2886;49.722;8.612;2023-02-15T04:42:26;1.40;99.90
5723;DHT22;2886;49.722;8.612;2023-02-15T04:44:54;1.40;99.90
5723;DHT22;2886;49.722;8.612;2023-02-15T04:47:20;1.40;99.90
5723;DHT22;2886;49.722;8.612;2023-02-15T04:49:45;1.40;99.90
5723;DHT22;2886;49.722;8.612;2023-02-15T04:52:11;1.30;99.90
5723;DHT22;2886;49.722;8.612;2023-02-15T04:54:37;1.30;99.90
5723;DHT22;2886;49.722;8.612;2023-02-15T04:57:04;1.30;99.90
5723;DHT22;2886;49.722;8.612;2023-02-15T04:59:29;1.30;99.90
5723;DHT22;2886;49.722;8.612;2023-02-15T05:01:55;1.20;99.90
5723;DHT22;2886;49.722;8.612;2023-02-15T05:04:20;1.20;99.90
5723;DHT22;2886;49.722;8.612;2023-02-15T05:06:46;1.20;99.90
5723;DHT22;2886;49.722;8.612;2023-02-15T05:09:12;1.30;99.90
5723;DHT22;2886;49.722;8.612;2023-02-15T05:11:37;1.20;99.90
5723;DHT22;2886;49.722;8.612;2023-02-15T05:14:03;1.30;99.90
5723;DHT22;2886;49.722;8.612;2023-02-15T05:16:29;1.30;99.90
5723;DHT22;2886;49.722;8.612;2023-02-15T05:18:55;1.30;99.90
5723;DHT22;2886;49.722;8.612;2023-02-15T05:21:21;1.40;99.90
5723;DHT22;2886;49.722;8.612;2023-02-15T05:23:46;1.40;99.90
5723;DHT22;2886;49.722;8.612;2023-02-15T05:26:21;1.40;99.90
5723;DHT22;2886;49.722;8.612;2023-02-15T05:29:05;1.50;99.90
5723;DHT22;2886;49.722;8.612;2023-02-15T05:31:32;1.60;99.90
5723;DHT22;2886;49.722;8.612;2023-02-15T05:33:59;1.60;99.90
5723;DHT22;2886;49.722;8.612;2023-02-15T05:36:24;1.60;99.90
5723;DHT22;2886;49.722;8.612;2023-02-15T05:38:50;1.60;99.90
5723;DHT22;2886;49.722;8.612;2023-02-15T05:41:16;1.60;99.90
5723;DHT22;2886;49.722;8.612;2023-02-15T05:43:42;1.60;99.90
5723;DHT22;2886;49.722;8.612;2023-02-15T05:46:08;1.60;99.90
5723;DHT22;2886;49.722;8.612;2023-02-15T05:48:34;1.60;99.90
5723;DHT22;2886;49.722;8.612;2023-02-15T05:53:28;1.70;99.90
5723;DHT22;2886;49.722;8.612;2023-02-15T05:55:55;1.80;99.90
5723;DHT22;2886;49.722;8.612;2023-02-15T05:58:26;1.80;99.90
5723;DHT22;2886;49.722;8.612;2023-02-15T06:00:52;1.80;99.90
5723;DHT22;2886;49.722;8.612;2023-02-15T06:03:18;1.80;99.90
5723;DHT22;2886;49.722;8.612;2023-02-15T06:05:43;1.90;99.90
5723;DHT22;2886;49.722;8.612;2023-02-15T06:08:09;1.90;99.90
5723;DHT22;2886;49.722;8.612;2023-02-15T06:10:34;1.90;99.90
5723;DHT22;2886;49.722;8.612;2023-02-15T06:13:00;1.90;99.90
5723;DHT22;2886;49.722;8.612;2023-02-15T06:15:26;1.90;99.90
5723;DHT22;2886;49.722;8.612;2023-02-15T06:17:51;1.90;99.90
5723;DHT22;2886;49.722;8.612;2023-02-15T06:20:17;1.90;99.90
5723;DHT22;2886;49.722;8.612;2023-02-15T06:22:43;1.90;99.90
5723;DHT22;2886;49.722;8.612;2023-02-15T06:25:08;1.90;99.90
5723;DHT22;2886;49.722;8.612;2023-02-15T06:27:36;1.90;99.90
5723;DHT22;2886;49.722;8.612;2023-02-15T06:30:04;1.80;99.90
5723;DHT22;2886;49.722;8.612;2023-02-15T06:32:31;1.80;99.90
5723;DHT22;2886;49.722;8.612;2023-02-15T06:34:56;1.90;99.90
5723;DHT22;2886;49.722;8.612;2023-02-15T06:37:22;1.80;99.90
5723;DHT22;2886;49.722;8.612;2023-02-15T06:39:48;1.80;99.90
5723;DHT22;2886;49.722;8.612;2023-02-15T06:42:15;1.90;99.90
5723;DHT22;2886;49.722;8.612;2023-02-15T06:44:43;1.90;99.90
5723;DHT22;2886;49.722;8.612;2023-02-15T06:47:08;1.90;99.90
5723;DHT22;2886;49.722;8.612;2023-02-15T06:49:34;1.90;99.90
5723;DHT22;2886;49.722;8.612;2023-02-15T06:51:59;1.90;99.90
5723;DHT22;2886;49.722;8.612;2023-02-15T06:54:25;1.90;99.90
5723;DHT22;2886;49.722;8.612;2023-02-15T06:56:51;1.90;99.90
5723;DHT22;2886;49.722;8.612;2023-02-15T06:59:16;1.90;99.90
5723;DHT22;2886;49.722;8.612;2023-02-15T07:01:42;1.90;99.90
5723;DHT22;2886;49.722;8.612;2023-02-15T07:04:07;1.90;99.90
5723;DHT22;2886;49.722;8.612;2023-02-15T07:06:35;1.90;99.90
5723;DHT22;2886;49.722;8.612;2023-02-15T07:09:01;2.00;99.90
5723;DHT22;2886;49.722;8.612;2023-02-15T07:11:27;2.00;99.90
5723;DHT22;2886;49.722;8.612;2023-02-15T07:14:11;2.10;99.90
5723;DHT22;2886;49.722;8.612;2023-02-15T07:16:36;2.10;99.90
5723;DHT22;2886;49.722;8.612;2023-02-15T07:19:02;2.10;99.90
5723;DHT22;2886;49.722;8.612;2023-02-15T07:21:28;2.00;99.90
5723;DHT22;2886;49.722;8.612;2023-02-15T07:23:56;2.10;99.90
5723;DHT22;2886;49.722;8.612;2023-02-15T07:26:22;2.10;99.90
5723;DHT22;2886;49.722;8.612;2023-02-15T07:28:48;2.10;99.90
5723;DHT22;2886;49.722;8.612;2023-02-15T07:31:13;2.10;99.90
5723;DHT22;2886;49.722;8.612;2023-02-15T07:33:39;2.10;99.90
5723;DHT22;2886;49.722;8.612;2023-02-15T07:36:05;2.10;99.90
5723;DHT22;2886;49.722;8.612;2023-02-15T07:38:36;2.00;99.90
5723;DHT22;2886;49.722;8.612;2023-02-15T07:41:04;1.90;99.90
5723;DHT22;2886;49.722;8.612;2023-02-15T07:43:32;2.00;99.90
5723;DHT22;2886;49.722;8.612;2023-02-15T07:46:03;2.10;99.90
5723;DHT22;2886;49.722;8.612;2023-02-15T07:48:29;2.10;99.90
5723;DHT22;2886;49.722;8.612;2023-02-15T07:51:02;2.10;99.90
5723;DHT22;2886;49.722;8.612;2023-02-15T07:53:28;2.20;99.90
5723;DHT22;2886;49.722;8.612;2023-02-15T07:55:54;2.20;99.90
5723;DHT22;2886;49.722;8.612;2023-02-15T07:58:20;2.30;99.90
5723;DHT22;2886;49.722;8.612;2023-02-15T08:00:46;2.30;99.90
5723;DHT22;2886;49.722;8.612;2023-02-15T08:03:27;2.20;99.90
5723;DHT22;2886;49.722;8.612;2023-02-15T08:05:58;2.30;99.90
5723;DHT22;2886;49.722;8.612;2023-02-15T08:08:25;2.30;99.90
5723;DHT22;2886;49.722;8.612;2023-02-15T08:19:00;2.40;99.90
5723;DHT22;2886;49.722;8.612;2023-02-15T08:21:27;2.50;99.90
5723;DHT22;2886;49.722;8.612;2023-02-15T08:23:54;2.50;99.90
5723;DHT22;2886;49.722;8.612;2023-02-15T08:26:21;2.50;99.90
5723;DHT22;2886;49.722;8.612;2023-02-15T08:28:46;2.50;99.90
5723;DHT22;2886;49.722;8.612;2023-02-15T08:31:13;2.50;99.90
5723;DHT22;2886;49.722;8.612;2023-02-15T08:33:40;2.50;99.90
5723;DHT22;2886;49.722;8.612;2023-02-15T08:36:18;2.50;99.90
5723;DHT22;2886;49.722;8.612;2023-02-15T08:38:44;2.50;99.90
5723;DHT22;2886;49.722;8.612;2023-02-15T08:41:19;2.60;99.90
5723;DHT22;2886;49.722;8.612;2023-02-15T08:43:47;2.60;99.90
5723;DHT22;2886;49.722;8.612;2023-02-15T08:46:15;2.60;99.90
5723;DHT22;2886;49.722;8.612;2023-02-15T08:48:42;2.70;99.90
5723;DHT22;2886;49.722;8.612;2023-02-15T08:51:16;2.80;99.90
5723;DHT22;2886;49.722;8.612;2023-02-15T08:53:45;2.90;99.90
5723;DHT22;2886;49.722;8.612;2023-02-15T08:56:12;2.90;99.90
5723;DHT22;2886;49.722;8.612;2023-02-15T08:58:38;2.90;99.90
5723;DHT22;2886;49.722;8.612;2023-02-15T09:01:18;3.00;99.90
5723;DHT22;2886;49.722;8.612;2023-02-15T09:03:47;3.00;99.90
5723;DHT22;2886;49.722;8.612;2023-02-15T09:06:16;3.00;99.90
5723;DHT22;2886;49.722;8.612;2023-02-15T09:08:42;3.00;99.90
5723;DHT22;2886;49.722;8.612;2023-02-15T09:13:36;3.10;99.90
5723;DHT22;2886;49.722;8.612;2023-02-15T09:16:04;3.10;99.90
5723;DHT22;2886;49.722;8.612;2023-02-15T09:18:32;3.10;99.90
5723;DHT22;2886;49.722;8.612;2023-02-15T09:21:22;3.10;99.90
5723;DHT22;2886;49.722;8.612;2023-02-15T09:23:50;3.10;99.90
5723;DHT22;2886;49.722;8.612;2023-02-15T09:26:19;3.20;99.90
5723;DHT22;2886;49.722;8.612;2023-02-15T09:28:46;3.10;99.90
5723;DHT22;2886;49.722;8.612;2023-02-15T09:31:18;3.20;99.90
5723;DHT22;2886;49.722;8.612;2023-02-15T09:33:46;3.20;99.90
5723;DHT22;2886;49.722;8.612;2023-02-15T09:36:23;3.20;99.90
5723;DHT22;2886;49.722;8.612;2023-02-15T09:38:58;3.20;99.90
5723;DHT22;2886;49.722;8.612;2023-02-15T09:58:53;3.30;99.90
5723;DHT22;2886;49.722;8.612;2023-02-15T10:13:19;3.60;99.90
5723;DHT22;2886;49.722;8.612;2023-02-15T10:16:13;3.60;99.90
5723;DHT22;2886;49.722;8.612;2023-02-15T10:18:53;3.50;99.90
5723;DHT22;2886;49.722;8.612;2023-02-15T10:21:59;3.50;99.90
5723;DHT22;2886;49.722;8.612;2023-02-15T10:27:19;3.60;99.90
5723;DHT22;2886;49.722;8.612;2023-02-15T10:30:00;3.50;99.90
5723;DHT22;2886;49.722;8.612;2023-02-15T10:32:28;3.60;99.90
5723;DHT22;2886;49.722;8.612;2023-02-15T10:41:09;3.70;99.90
5723;DHT22;2886;49.722;8.612;2023-02-15T10:46:36;3.70;99.90
5723;DHT22;2886;49.722;8.612;2023-02-15T10:57:48;3.90;99.90
5723;DHT22;2886;49.722;8.612;2023-02-15T11:03:25;3.90;99.90
5723;DHT22;2886;49.722;8.612;2023-02-15T11:06:05;4.00;99.90
5723;DHT22;2886;49.722;8.612;2023-02-15T11:08:35;3.90;99.90
5723;DHT22;2886;49.722;8.612;2023-02-15T11:11:12;4.00;99.90
5723;DHT22;2886;49.722;8.612;2023-02-15T11:13:44;4.00;99.90
5723;DHT22;2886;49.722;8.612;2023-02-15T11:16:22;4.00;99.90
5723;DHT22;2886;49.722;8.612;2023-02-15T11:18:52;4.10;99.90
5723;DHT22;2886;49.722;8.612;2023-02-15T11:21:38;4.10;99.90
5723;DHT22;2886;49.722;8.612;2023-02-15T11:24:14;4.20;99.90
5723;DHT22;2886;49.722;8.612;2023-02-15T11:26:48;4.30;99.90
5723;DHT22;2886;49.722;8.612;2023-02-15T11:29:41;4.30;99.90
5723;DHT22;2886;49.722;8.612;2023-02-15T11:32:27;4.30;99.90
5723;DHT22;2886;49.722;8.612;2023-02-15T11:37:49;4.40;99.90
5723;DHT22;2886;49.722;8.612;2023-02-15T11:40:49;4.40;99.90
5723;DHT22;2886;49.722;8.612;2023-02-15T11:46:11;4.40;99.90
5723;DHT22;2886;49.722;8.612;2023-02-15T11:48:37;4.50;99.90
5723;DHT22;2886;49.722;8.612;2023-02-15T11:51:03;4.40;99.90
5723;DHT22;2886;49.722;8.612;2023-02-15T11:53:32;4.50;99.90
5723;DHT22;2886;49.722;8.612;2023-02-15T11:55:59;4.50;99.90
5723;DHT22;2886;49.722;8.612;2023-02-15T11:58:50;4.50;99.90
5723;DHT22;2886;49.722;8.612;2023-02-15T12:01:39;4.60;99.90
5723;DHT22;2886;49.722;8.612;2023-02-15T12:04:26;4.60;99.90
5723;DHT22;2886;49.722;8.612;2023-02-15T12:07:04;4.70;99.90
5723;DHT22;2886;49.722;8.612;2023-02-15T12:12:25;4.60;99.90
5723;DHT22;2886;49.722;8.612;2023-02-15T12:14:53;4.60;99.90
5723;DHT22;2886;49.722;8.612;2023-02-15T12:17:22;4.70;99.90
5723;DHT22;2886;49.722;8.612;2023-02-15T12:19:49;4.70;99.90
5723;DHT22;2886;49.722;8.612;2023-02-15T12:22:25;4.60;99.90
5723;DHT22;2886;49.722;8.612;2023-02-15T12:24:54;4.70;99.90
5723;DHT22;2886;49.722;8.612;2023-02-15T12:27:30;4.80;99.90
5723;DHT22;2886;49.722;8.612;2023-02-15T12:30:53;4.90;99.90
5723;DHT22;2886;49.722;8.612;2023-02-15T12:32:57;4.90;99.90
5723;DHT22;2886;49.722;8.612;2023-02-15T12:35:33;5.00;99.90
5723;DHT22;2886;49.722;8.612;2023-02-15T12:38:02;5.10;99.90
5723;DHT22;2886;49.722;8.612;2023-02-15T12:40:30;5.10;99.90
5723;DHT22;2886;49.722;8.612;2023-02-15T12:42:56;5.20;99.90
5723;DHT22;2886;49.722;8.612;2023-02-15T12:45:33;5.30;99.90
5723;DHT22;2886;49.722;8.612;2023-02-15T12:50:49;5.30;99.90
5723;DHT22;2886;49.722;8.612;2023-02-15T12:53:31;5.40;99.90
5723;DHT22;2886;49.722;8.612;2023-02-15T12:55:59;5.40;99.90
5723;DHT22;2886;49.722;8.612;2023-02-15T12:58:36;5.40;99.90
5723;DHT22;2886;49.722;8.612;2023-02-15T13:03:35;5.30;99.90
5723;DHT22;2886;49.722;8.612;2023-02-15T13:06:02;5.40;99.90
5723;DHT22;2886;49.722;8.612;2023-02-15T13:08:35;5.50;99.90
5723;DHT22;2886;49.722;8.612;2023-02-15T13:11:09;5.60;99.90
5723;DHT22;2886;49.722;8.612;2023-02-15T13:13:45;5.60;99.90
5723;DHT22;2886;49.722;8.612;2023-02-15T13:16:13;5.70;99.90
5723;DHT22;2886;49.722;8.612;2023-02-15T13:18:44;5.80;99.90
5723;DHT22;2886;49.722;8.612;2023-02-15T13:21:16;5.80;99.90
5723;DHT22;2886;49.722;8.612;2023-02-15T13:26:42;5.80;99.90
5723;DHT22;2886;49.722;8.612;2023-02-15T13:29:18;5.80;99.90
5723;DHT22;2886;49.722;8.612;2023-02-15T13:31:46;5.80;99.90
5723;DHT22;2886;49.722;8.612;2023-02-15T13:34:39;5.80;99.90
5723;DHT22;2886;49.722;8.612;2023-02-15T13:37:19;5.80;99.90
5723;DHT22;2886;49.722;8.612;2023-02-15T13:40:20;5.80;99.90
5723;DHT22;2886;49.722;8.612;2023-02-15T13:43:05;5.90;99.90
5723;DHT22;2886;49.722;8.612;2023-02-15T13:48:50;5.80;99.90
5723;DHT22;2886;49.722;8.612;2023-02-15T13:56:46;5.80;99.90
5723;DHT22;2886;49.722;8.612;2023-02-15T13:59:29;5.90;99.90
5723;DHT22;2886;49.722;8.612;2023-02-15T14:07:42;5.90;99.90
5723;DHT22;2886;49.722;8.612;2023-02-15T14:10:35;5.80;99.90
5723;DHT22;2886;49.722;8.612;2023-02-15T14:21:31;5.80;99.90
5723;DHT22;2886;49.722;8.612;2023-02-15T14:29:50;5.80;99.90
5723;DHT22;2886;49.722;8.612;2023-02-15T14:34:57;5.80;99.90
5723;DHT22;2886;49.722;8.612;2023-02-15T14:48:53;5.70;99.90
5723;DHT22;2886;49.722;8.612;2023-02-15T14:59:55;5.60;99.90
5723;DHT22;2886;49.722;8.612;2023-02-15T15:02:48;5.60;99.90
5723;DHT22;2886;49.722;8.612;2023-02-15T15:05:32;5.50;99.90
5723;DHT22;2886;49.722;8.612;2023-02-15T15:07:59;5.50;99.90
5723;DHT22;2886;49.722;8.612;2023-02-15T15:12:53;5.30;99.90
5723;DHT22;2886;49.722;8.612;2023-02-15T15:18:08;5.20;99.90
5723;DHT22;2886;49.722;8.612;2023-02-15T15:20:51;5.10;99.90
5723;DHT22;2886;49.722;8.612;2023-02-15T15:25:57;5.10;99.90
5723;DHT22;2886;49.722;8.612;2023-02-15T15:50:25;4.80;99.90
5723;DHT22;2886;49.722;8.612;2023-02-15T15:52:57;4.80;99.90
5723;DHT22;2886;49.722;8.612;2023-02-15T15:55:26;4.80;99.90
5723;DHT22;2886;49.722;8.612;2023-02-15T15:58:05;4.80;99.90
5723;DHT22;2886;49.722;8.612;2023-02-15T16:00:41;4.70;99.90
5723;DHT22;2886;49.722;8.612;2023-02-15T16:03:15;4.60;99.90
5723;DHT22;2886;49.722;8.612;2023-02-15T16:05:42;4.60;99.90
5723;DHT22;2886;49.722;8.612;2023-02-15T16:08:08;4.50;99.90
5723;DHT22;2886;49.722;8.612;2023-02-15T16:10:34;4.40;99.90
5723;DHT22;2886;49.722;8.612;2023-02-15T16:13:02;4.50;99.90
5723;DHT22;2886;49.722;8.612;2023-02-15T16:18:02;4.40;99.90
5723;DHT22;2886;49.722;8.612;2023-02-15T16:20:33;4.30;99.90
5723;DHT22;2886;49.722;8.612;2023-02-15T16:28:50;4.20;99.90
5723;DHT22;2886;49.722;8.612;2023-02-15T16:31:17;4.20;99.90
5723;DHT22;2886;49.722;8.612;2023-02-15T16:33:44;4.20;99.90
5723;DHT22;2886;49.722;8.612;2023-02-15T16:36:25;4.20;99.90
5723;DHT22;2886;49.722;8.612;2023-02-15T16:41:30;4.10;99.90
5723;DHT22;2886;49.722;8.612;2023-02-15T16:44:05;4.20;99.90
5723;DHT22;2886;49.722;8.612;2023-02-15T16:46:37;4.20;99.90
5723;DHT22;2886;49.722;8.612;2023-02-15T16:49:07;4.10;99.90
5723;DHT22;2886;49.722;8.612;2023-02-15T16:51:41;4.10;99.90
5723;DHT22;2886;49.722;8.612;2023-02-15T16:54:15;4.10;99.90
5723;DHT22;2886;49.722;8.612;2023-02-15T16:56:43;4.10;99.90
5723;DHT22;2886;49.722;8.612;2023-02-15T16:59:24;4.10;99.90
5723;DHT22;2886;49.722;8.612;2023-02-15T17:01:51;4.00;99.90
5723;DHT22;2886;49.722;8.612;2023-02-15T17:07:16;4.00;99.90
5723;DHT22;2886;49.722;8.612;2023-02-15T17:09:53;4.00;99.90
5723;DHT22;2886;49.722;8.612;2023-02-15T17:15:36;4.00;99.90
5723;DHT22;2886;49.722;8.612;2023-02-15T17:18:08;3.90;99.90
5723;DHT22;2886;49.722;8.612;2023-02-15T17:20:37;3.90;99.90
5723;DHT22;2886;49.722;8.612;2023-02-15T17:23:04;3.90;99.90
5723;DHT22;2886;49.722;8.612;2023-02-15T17:25:40;3.90;99.90
5723;DHT22;2886;49.722;8.612;2023-02-15T17:28:18;3.80;99.90
5723;DHT22;2886;49.722;8.612;2023-02-15T17:30:44;3.90;99.90
5723;DHT22;2886;49.722;8.612;2023-02-15T17:33:21;3.80;99.90
5723;DHT22;2886;49.722;8.612;2023-02-15T17:38:38;3.80;99.90
5723;DHT22;2886;49.722;8.612;2023-02-15T17:41:04;3.80;99.90
5723;DHT22;2886;49.722;8.612;2023-02-15T17:43:30;3.70;99.90
5723;DHT22;2886;49.722;8.612;2023-02-15T17:45:56;3.70;99.90
5723;DHT22;2886;49.722;8.612;2023-02-15T17:48:27;3.70;99.90
5723;DHT22;2886;49.722;8.612;2023-02-15T17:50:57;3.70;99.90
5723;DHT22;2886;49.722;8.612;2023-02-15T17:53:23;3.70;99.90
5723;DHT22;2886;49.722;8.612;2023-02-15T17:55:50;3.70;99.90
5723;DHT22;2886;49.722;8.612;2023-02-15T17:58:18;3.70;99.90
5723;DHT22;2886;49.722;8.612;2023-02-15T18:00:45;3.60;99.90
5723;DHT22;2886;49.722;8.612;2023-02-15T18:06:26;3.60;99.90
5723;DHT22;2886;49.722;8.612;2023-02-15T18:09:16;3.60;99.90
5723;DHT22;2886;49.722;8.612;2023-02-15T18:12:01;3.70;99.90
5723;DHT22;2886;49.722;8.612;2023-02-15T18:14:27;3.60;99.90
5723;DHT22;2886;49.722;8.612;2023-02-15T18:16:53;3.60;99.90
5723;DHT22;2886;49.722;8.612;2023-02-15T18:19:24;3.70;99.90
5723;DHT22;2886;49.722;8.612;2023-02-15T18:21:51;3.60;99.90
5723;DHT22;2886;49.722;8.612;2023-02-15T18:24:25;3.70;99.90
5723;DHT22;2886;49.722;8.612;2023-02-15T18:26:52;3.70;99.90
5723;DHT22;2886;49.722;8.612;2023-02-15T18:29:19;3.70;99.90
5723;DHT22;2886;49.722;8.612;2023-02-15T18:31:47;3.70;99.90
5723;DHT22;2886;49.722;8.612;2023-02-15T18:34:26;3.70;99.90
5723;DHT22;2886;49.722;8.612;2023-02-15T18:36:52;3.70;99.90
5723;DHT22;2886;49.722;8.612;2023-02-15T18:42:30;3.70;99.90
5723;DHT22;2886;49.722;8.612;2023-02-15T18:45:01;3.70;99.90
5723;DHT22;2886;49.722;8.612;2023-02-15T18:47:29;3.70;99.90
5723;DHT22;2886;49.722;8.612;2023-02-15T18:49:55;3.70;99.90
5723;DHT22;2886;49.722;8.612;2023-02-15T18:52:22;3.70;99.90
5723;DHT22;2886;49.722;8.612;2023-02-15T18:54:52;3.70;99.90
5723;DHT22;2886;49.722;8.612;2023-02-15T18:57:18;3.70;99.90
5723;DHT22;2886;49.722;8.612;2023-02-15T18:59:44;3.80;99.90
5723;DHT22;2886;49.722;8.612;2023-02-15T19:02:15;3.80;99.90
5723;DHT22;2886;49.722;8.612;2023-02-15T19:04:42;3.80;99.90
5723;DHT22;2886;49.722;8.612;2023-02-15T19:07:19;3.70;99.90
5723;DHT22;2886;49.722;8.612;2023-02-15T19:09:48;3.70;99.90
5723;DHT22;2886;49.722;8.612;2023-02-15T19:12:15;3.60;99.90
5723;DHT22;2886;49.722;8.612;2023-02-15T19:14:43;3.60;99.90
5723;DHT22;2886;49.722;8.612;2023-02-15T19:17:17;3.50;99.90
5723;DHT22;2886;49.722;8.612;2023-02-15T19:19:44;3.50;99.90
5723;DHT22;2886;49.722;8.612;2023-02-15T19:22:26;3.40;99.90
5723;DHT22;2886;49.722;8.612;2023-02-15T19:24:53;3.30;99.90
5723;DHT22;2886;49.722;8.612;2023-02-15T19:27:27;3.20;99.90
5723;DHT22;2886;49.722;8.612;2023-02-15T19:29:55;3.20;99.90
5723;DHT22;2886;49.722;8.612;2023-02-15T19:32:21;3.10;99.90
5723;DHT22;2886;49.722;8.612;2023-02-15T19:34:47;3.10;99.90
5723;DHT22;2886;49.722;8.612;2023-02-15T19:37:28;3.10;99.90
5723;DHT22;2886;49.722;8.612;2023-02-15T19:39:56;3.10;99.90
5723;DHT22;2886;49.722;8.612;2023-02-15T19:42:22;3.10;99.90
5723;DHT22;2886;49.722;8.612;2023-02-15T19:44:49;3.00;99.90
5723;DHT22;2886;49.722;8.612;2023-02-15T19:47:16;3.00;99.90
5723;DHT22;2886;49.722;8.612;2023-02-15T19:49:41;3.00;99.90
5723;DHT22;2886;49.722;8.612;2023-02-15T19:52:21;2.90;99.90
5723;DHT22;2886;49.722;8.612;2023-02-15T19:54:52;2.90;99.90
5723;DHT22;2886;49.722;8.612;2023-02-15T19:57:19;2.90;99.90
5723;DHT22;2886;49.722;8.612;2023-02-15T19:59:45;2.80;99.90
5723;DHT22;2886;49.722;8.612;2023-02-15T20:02:15;2.90;99.90
5723;DHT22;2886;49.722;8.612;2023-02-15T20:04:42;2.90;99.90
5723;DHT22;2886;49.722;8.612;2023-02-15T20:07:25;2.90;99.90